createdAt,value
2017-11-12T00:02:12.524Z,99.00
2017-11-12T00:05:23.248Z,98.90
2017-11-12T00:08:33.983Z,99.00
2017-11-12T00:11:44.743Z,98.90
2017-11-12T00:14:55.395Z,99.10
2017-11-12T00:18:06.246Z,99.20
2017-11-12T00:21:17.306Z,99.20
2017-11-12T00:24:27.433Z,99.20
2017-11-12T00:27:38.214Z,99.10
2017-11-12T00:30:48.883Z,99.30
2017-11-12T00:33:59.327Z,99.50
2017-11-12T00:37:09.269Z,99.60
2017-11-12T00:40:20.895Z,99.60
2017-11-12T00:43:30.703Z,99.50
2017-11-12T00:46:40.510Z,99.50
2017-11-12T00:49:51.279Z,99.40
2017-11-12T00:53:01.952Z,99.30
2017-11-12T00:56:12.560Z,99.50
2017-11-12T00:59:23.406Z,99.60
2017-11-12T01:02:33.609Z,99.60
2017-11-12T01:05:43.719Z,99.40
2017-11-12T01:08:53.684Z,99.50
2017-11-12T01:12:03.619Z,99.20
2017-11-12T01:15:14.033Z,99.10
2017-11-12T01:18:24.237Z,99.10
2017-11-12T01:21:33.988Z,99.20
2017-11-12T01:24:43.816Z,99.20
2017-11-12T01:27:53.960Z,98.90
2017-11-12T01:31:04.807Z,98.70
2017-11-12T01:34:15.627Z,98.70
2017-11-12T01:37:26.282Z,98.60
2017-11-12T01:40:36.425Z,98.50
2017-11-12T01:43:46.766Z,98.60
2017-11-12T01:46:57.631Z,98.60
2017-11-12T01:50:08.376Z,98.60
2017-11-12T01:53:18.447Z,98.60
2017-11-12T01:56:29.134Z,98.70
2017-11-12T01:59:39.007Z,98.40
2017-11-12T02:02:48.518Z,98.30
2017-11-12T02:05:58.824Z,98.30
2017-11-12T02:09:08.853Z,98.40
2017-11-12T02:12:19.213Z,98.30
2017-11-12T02:15:29.267Z,98.00
2017-11-12T02:18:39.968Z,98.10
2017-11-12T02:21:50.527Z,97.70
2017-11-12T02:25:00.602Z,97.70
2017-11-12T02:28:10.161Z,97.60
2017-11-12T02:31:19.833Z,97.90
2017-11-12T02:34:29.585Z,98.00
2017-11-12T02:37:39.919Z,98.10
2017-11-12T02:40:49.498Z,97.90
2017-11-12T02:43:59.786Z,97.90
2017-11-12T02:47:09.859Z,97.90
2017-11-12T02:50:19.949Z,97.60
2017-11-12T02:53:29.591Z,97.50
2017-11-12T02:56:39.141Z,97.80
2017-11-12T02:59:49.305Z,98.30
2017-11-12T03:02:59.124Z,98.10
2017-11-12T03:06:08.954Z,98.30
2017-11-12T03:09:18.736Z,99.00
2017-11-12T03:12:28.555Z,99.30
2017-11-12T03:15:39.249Z,99.80
2017-11-12T03:18:49.343Z,99.70
2017-11-12T03:21:59.564Z,99.80
2017-11-12T03:25:09.366Z,99.30
2017-11-12T03:28:19.802Z,99.00
2017-11-12T03:31:30.505Z,98.80
2017-11-12T03:34:40.283Z,98.60
2017-11-12T03:37:50.846Z,98.70
2017-11-12T03:41:00.855Z,98.80
2017-11-12T03:44:10.870Z,98.80
2017-11-12T03:47:21.527Z,98.60
2017-11-12T03:50:31.998Z,98.60
2017-11-12T03:53:41.782Z,98.60
2017-11-12T03:56:52.394Z,98.30
2017-11-12T04:00:02.443Z,98.30
2017-11-12T04:03:12.989Z,98.40
2017-11-12T04:06:22.962Z,98.40
2017-11-12T04:09:33.647Z,98.30
2017-11-12T04:12:43.510Z,97.90
2017-11-12T04:15:53.454Z,98.50
2017-11-12T04:19:03.360Z,98.50
2017-11-12T04:22:13.102Z,98.30
2017-11-12T04:25:23.642Z,98.20
2017-11-12T04:28:33.426Z,98.30
2017-11-12T04:31:43.597Z,98.20
2017-11-12T04:34:53.823Z,98.10
2017-11-12T04:38:04.868Z,98.10
2017-11-12T04:41:16.066Z,97.90
2017-11-12T04:44:26.918Z,98.30
2017-11-12T04:47:37.269Z,98.30
2017-11-12T04:50:48.595Z,98.40
2017-11-12T04:53:58.857Z,98.40
2017-11-12T04:57:08.580Z,98.70
2017-11-12T05:00:18.235Z,98.70
2017-11-12T05:03:29.199Z,98.80
2017-11-12T05:06:39.649Z,98.80
2017-11-12T05:09:49.246Z,98.80
2017-11-12T05:12:59.031Z,98.90
2017-11-12T05:16:09.575Z,98.70
2017-11-12T05:19:20.549Z,98.60
2017-11-12T05:22:31.241Z,98.60
2017-11-12T05:25:41.286Z,98.70
2017-11-12T05:28:51.325Z,98.70
2017-11-12T05:32:02.760Z,99.00
2017-11-12T05:35:12.369Z,99.00
2017-11-12T05:38:22.234Z,99.10
2017-11-12T05:41:32.195Z,99.10
2017-11-12T05:44:42.288Z,99.00
2017-11-12T05:47:52.135Z,99.10
2017-11-12T05:51:02.290Z,99.00
2017-11-12T05:54:12.355Z,98.70
2017-11-12T05:57:22.336Z,98.80
2017-11-12T06:00:32.303Z,98.80
2017-11-12T06:03:43.084Z,98.90
2017-11-12T06:06:52.849Z,99.10
2017-11-12T06:10:03.067Z,98.90
2017-11-12T06:13:13.164Z,99.10
2017-11-12T06:16:23.547Z,98.70
2017-11-12T06:19:33.389Z,98.40
2017-11-12T06:22:44.122Z,98.20
2017-11-12T06:25:54.670Z,98.60
2017-11-12T06:29:04.344Z,98.60
2017-11-12T06:32:14.152Z,98.60
2017-11-12T06:35:24.484Z,98.80
2017-11-12T06:38:34.592Z,98.80
2017-11-12T06:41:44.384Z,98.50
2017-11-12T06:44:54.221Z,98.20
2017-11-12T06:48:04.176Z,98.30
2017-11-12T06:51:14.000Z,98.30
2017-11-12T06:54:24.038Z,98.50
2017-11-12T06:57:33.766Z,98.60
2017-11-12T07:00:44.414Z,98.20
2017-11-12T07:03:54.456Z,98.70
2017-11-12T07:07:04.157Z,98.60
2017-11-12T07:10:14.764Z,98.30
2017-11-12T07:13:24.825Z,98.40
2017-11-12T07:16:34.955Z,98.40
2017-11-12T07:19:44.957Z,98.10
2017-11-12T07:22:55.668Z,98.60
2017-11-12T07:26:06.227Z,98.70
2017-11-12T07:29:17.163Z,98.70
2017-11-12T07:32:27.948Z,98.90
2017-11-12T07:35:37.940Z,98.90
2017-11-12T07:38:47.724Z,98.50
2017-11-12T07:41:59.121Z,98.20
2017-11-12T07:45:09.086Z,98.20
2017-11-12T07:48:19.043Z,98.50
2017-11-12T07:51:30.058Z,98.70
2017-11-12T07:54:40.738Z,98.80
2017-11-12T07:57:53.288Z,98.60
2017-11-12T08:01:04.296Z,98.90
2017-11-12T08:04:14.569Z,98.40
2017-11-12T08:07:25.144Z,98.80
2017-11-12T08:10:37.006Z,99.00
2017-11-12T08:13:47.139Z,99.00
2017-11-12T08:16:58.015Z,99.20
2017-11-12T08:20:08.927Z,99.10
2017-11-12T08:23:21.116Z,99.60
2017-11-12T08:26:33.244Z,99.50
2017-11-12T08:29:43.555Z,99.40
2017-11-12T08:32:56.210Z,99.10
2017-11-12T08:36:07.935Z,99.00
2017-11-12T08:39:17.922Z,99.00
2017-11-12T08:42:27.954Z,98.80
2017-11-12T08:45:39.751Z,98.70
2017-11-12T08:48:53.765Z,98.60
2017-11-12T08:52:04.559Z,98.20
2017-11-12T08:55:15.472Z,98.70
2017-11-12T08:58:27.025Z,98.60
2017-11-12T09:01:39.862Z,98.40
2017-11-12T09:04:51.306Z,98.40
2017-11-12T09:08:01.745Z,98.60
2017-11-12T09:11:12.479Z,98.30
2017-11-12T09:14:23.416Z,98.30
2017-11-12T09:17:36.024Z,98.60
2017-11-12T09:20:47.801Z,98.60
2017-11-12T09:23:59.453Z,98.20
2017-11-12T09:27:09.940Z,98.30
2017-11-12T09:30:22.064Z,98.40
2017-11-12T09:33:32.644Z,98.00
2017-11-12T09:36:44.389Z,97.40
2017-11-12T09:39:54.430Z,97.40
2017-11-12T09:43:05.297Z,98.30
2017-11-12T09:46:15.994Z,98.10
2017-11-12T09:49:26.070Z,98.00
2017-11-12T09:52:36.710Z,97.90
2017-11-12T09:55:46.855Z,98.00
2017-11-12T09:59:00.094Z,97.80
2017-11-12T10:02:11.205Z,97.80
2017-11-12T10:05:21.159Z,97.90
2017-11-12T10:08:32.022Z,96.60
2017-11-12T10:11:44.056Z,96.80
2017-11-12T10:14:54.806Z,96.70
2017-11-12T10:18:05.607Z,96.40
2017-11-12T10:21:16.384Z,96.30
2017-11-12T10:24:27.027Z,95.80
2017-11-12T10:27:37.499Z,96.00
2017-11-12T10:30:48.333Z,96.10
2017-11-12T10:33:59.538Z,95.50
2017-11-12T10:37:10.455Z,96.00
2017-11-12T10:40:20.331Z,95.80
2017-11-12T10:43:30.327Z,96.10
2017-11-12T10:46:40.353Z,95.60
2017-11-12T10:49:51.060Z,95.80
2017-11-12T10:53:01.085Z,96.20
2017-11-12T10:56:11.133Z,96.20
2017-11-12T10:59:21.382Z,96.50
2017-11-12T11:02:39.885Z,96.20
2017-11-12T11:05:50.833Z,96.00
2017-11-12T11:09:02.619Z,95.80
2017-11-12T11:12:13.332Z,95.80
2017-11-12T11:15:28.659Z,95.40
2017-11-12T11:18:39.392Z,95.40
2017-11-12T11:21:49.646Z,95.30
2017-11-12T11:25:00.656Z,95.50
2017-11-12T11:28:11.358Z,95.90
2017-11-12T11:31:22.253Z,95.30
2017-11-12T11:34:32.145Z,95.80
2017-11-12T11:37:41.994Z,95.30
2017-11-12T11:40:52.937Z,94.70
2017-11-12T11:44:03.449Z,94.60
2017-11-12T11:47:15.376Z,94.50
2017-11-12T11:50:25.949Z,94.50
2017-11-12T11:53:36.547Z,94.40
2017-11-12T11:56:46.516Z,94.40
2017-11-12T11:59:56.415Z,94.00
2017-11-12T12:03:06.576Z,93.90
2017-11-12T12:06:18.050Z,94.90
2017-11-12T12:09:30.445Z,94.50
2017-11-12T12:12:43.532Z,94.50
2017-11-12T12:15:54.319Z,94.20
2017-11-12T12:19:05.942Z,94.70
2017-11-12T12:22:16.708Z,93.90
2017-11-12T12:25:27.557Z,94.10
2017-11-12T12:28:39.791Z,93.90
2017-11-12T12:31:49.864Z,93.90
2017-11-12T12:35:00.394Z,94.30
2017-11-12T12:38:09.957Z,94.20
2017-11-12T12:41:19.913Z,93.90
2017-11-12T12:44:30.294Z,94.00
2017-11-12T12:47:40.843Z,94.00
2017-11-12T12:50:50.924Z,94.10
2017-11-12T12:54:01.215Z,94.40
2017-11-12T12:57:11.982Z,94.30
2017-11-12T13:00:23.300Z,94.00
2017-11-12T13:03:33.429Z,94.00
2017-11-12T13:06:43.521Z,94.00
2017-11-12T13:09:54.407Z,93.50
2017-11-12T13:13:05.587Z,93.70
2017-11-12T13:16:15.778Z,93.70
2017-11-12T13:19:26.616Z,94.00
2017-11-12T13:22:38.221Z,94.50
2017-11-12T13:25:48.668Z,94.40
2017-11-12T13:28:59.164Z,94.70
2017-11-12T13:32:09.109Z,94.40
2017-11-12T13:35:20.625Z,94.70
2017-11-12T13:38:31.344Z,94.80
2017-11-12T13:41:41.482Z,94.70
2017-11-12T13:44:52.217Z,94.80
2017-11-12T13:48:02.273Z,95.20
2017-11-12T13:51:13.981Z,94.80
2017-11-12T13:54:25.554Z,95.40
2017-11-12T13:57:36.484Z,95.70
2017-11-12T14:00:46.940Z,95.70
2017-11-12T14:03:56.746Z,96.10
2017-11-12T14:07:11.448Z,96.10
2017-11-12T14:10:21.293Z,96.20
2017-11-12T14:13:31.612Z,96.20
2017-11-12T14:16:41.525Z,96.40
2017-11-12T14:19:51.892Z,96.40
2017-11-12T14:23:01.972Z,96.50
2017-11-12T14:26:14.418Z,96.80
2017-11-12T14:29:25.119Z,97.00
2017-11-12T14:32:35.697Z,96.60
2017-11-12T14:35:45.876Z,97.10
2017-11-12T14:38:57.013Z,97.60
2017-11-12T14:42:07.524Z,97.20
2017-11-12T14:45:17.442Z,97.20
2017-11-12T14:48:27.693Z,97.10
2017-11-12T14:51:38.738Z,97.20
2017-11-12T14:54:49.475Z,97.20
2017-11-12T14:57:59.327Z,97.20
2017-11-12T15:01:09.933Z,97.00
2017-11-12T15:04:19.860Z,97.00
2017-11-12T15:07:29.758Z,97.00
2017-11-12T15:10:41.792Z,97.50
2017-11-12T15:13:53.875Z,97.50
2017-11-12T15:17:05.198Z,97.30
2017-11-12T15:20:15.282Z,97.30
2017-11-12T15:23:26.807Z,97.50
2017-11-12T15:26:38.108Z,97.30
2017-11-12T15:29:48.891Z,97.20
2017-11-12T15:33:00.363Z,97.60
2017-11-12T15:36:11.894Z,97.40
2017-11-12T15:39:22.826Z,97.10
2017-11-12T15:42:32.883Z,97.40
2017-11-12T15:45:42.788Z,97.40
2017-11-12T15:48:53.123Z,97.70
2017-11-12T15:52:03.542Z,97.70
2017-11-12T15:55:14.119Z,97.90
2017-11-12T15:58:25.052Z,97.80
2017-11-12T16:01:36.767Z,97.90
2017-11-12T16:04:47.657Z,97.80
2017-11-12T16:07:58.251Z,97.90
2017-11-12T16:11:09.244Z,98.10
2017-11-12T16:14:20.609Z,98.40
2017-11-12T16:17:30.885Z,98.40
2017-11-12T16:20:40.733Z,98.40
2017-11-12T16:23:50.561Z,98.40
2017-11-12T16:27:00.656Z,98.50
2017-11-12T16:30:10.729Z,98.60
2017-11-12T16:33:20.746Z,98.50
2017-11-12T16:36:30.814Z,98.60
2017-11-12T16:39:41.899Z,98.60
2017-11-12T16:42:52.483Z,98.60
2017-11-12T16:46:04.096Z,98.70
2017-11-12T16:49:14.080Z,98.70
2017-11-12T16:52:24.945Z,98.90
2017-11-12T16:55:35.828Z,98.70
2017-11-12T16:58:46.198Z,98.70
2017-11-12T17:01:56.714Z,99.00
2017-11-12T17:05:07.715Z,98.90
2017-11-12T17:08:17.656Z,98.90
2017-11-12T17:11:28.131Z,99.20
2017-11-12T17:14:38.167Z,99.10
2017-11-12T17:17:47.969Z,99.20
2017-11-12T17:20:57.739Z,99.30
2017-11-12T17:24:07.666Z,99.50
2017-11-12T17:27:18.359Z,99.50
2017-11-12T17:30:28.655Z,99.40
2017-11-12T17:33:38.520Z,99.20
2017-11-12T17:36:48.397Z,99.50
2017-11-12T17:39:59.311Z,99.40
2017-11-12T17:43:10.395Z,99.60
2017-11-12T17:46:20.984Z,99.50
2017-11-12T17:49:31.235Z,99.30
2017-11-12T17:52:41.513Z,99.50
2017-11-12T17:55:51.506Z,99.60
2017-11-12T17:59:01.490Z,99.80
2017-11-12T18:02:11.633Z,99.90
2017-11-12T18:05:21.872Z,99.90
2017-11-12T18:08:31.763Z,99.90
2017-11-12T18:11:42.017Z,99.90
2017-11-12T18:14:52.022Z,99.90
2017-11-12T18:18:01.738Z,99.90
2017-11-12T18:21:11.918Z,99.90
2017-11-12T18:24:21.781Z,99.90
2017-11-12T18:27:31.831Z,99.90
2017-11-12T18:30:41.763Z,99.90
2017-11-12T18:33:51.843Z,99.90
2017-11-12T18:37:01.674Z,99.90
2017-11-12T18:40:12.710Z,99.90
2017-11-12T18:43:24.059Z,99.90
2017-11-12T18:46:34.804Z,99.90
2017-11-12T18:49:44.941Z,99.90
2017-11-12T18:52:55.279Z,99.90
2017-11-12T18:59:51.727Z,99.90
2017-11-12T19:03:07.433Z,99.90
2017-11-12T19:06:23.309Z,99.90
2017-11-12T19:09:34.447Z,99.90
2017-11-12T19:12:44.146Z,99.90
2017-11-12T19:15:54.126Z,99.90
2017-11-12T19:19:06.947Z,99.90
2017-11-12T19:22:20.078Z,99.90
2017-11-12T19:25:46.212Z,99.90
2017-11-12T19:29:07.544Z,99.90
2017-11-12T19:32:18.189Z,99.90
2017-11-12T19:35:28.390Z,99.90
2017-11-12T19:38:38.975Z,99.90
2017-11-12T19:41:49.907Z,99.90
2017-11-12T19:45:04.078Z,99.90
2017-11-12T19:48:14.515Z,99.90
2017-11-12T19:51:24.607Z,99.90
2017-11-12T19:54:35.264Z,99.90
2017-11-12T19:57:46.646Z,99.90
2017-11-12T20:00:56.512Z,99.90
2017-11-12T20:04:07.308Z,99.90
2017-11-12T20:07:18.031Z,99.90
2017-11-12T20:10:28.745Z,99.90
2017-11-12T20:13:39.020Z,99.90
2017-11-12T20:16:49.131Z,99.90
2017-11-12T20:19:59.878Z,99.90
2017-11-12T20:23:10.116Z,99.90
2017-11-12T20:26:20.117Z,99.90
2017-11-12T20:29:30.521Z,99.90
2017-11-12T20:32:40.587Z,99.90
2017-11-12T20:35:50.712Z,99.90
2017-11-12T20:39:00.638Z,99.90
2017-11-12T20:42:10.537Z,99.90
2017-11-12T20:45:20.405Z,99.90
2017-11-12T20:48:31.025Z,99.90
2017-11-12T20:51:41.058Z,99.90
2017-11-12T20:54:51.647Z,99.90
2017-11-12T20:58:02.199Z,99.90
2017-11-12T21:01:13.237Z,99.90
2017-11-12T21:04:24.115Z,99.90
2017-11-12T21:07:33.986Z,99.90
2017-11-12T21:10:43.538Z,99.90
2017-11-12T21:13:54.513Z,99.90
2017-11-12T21:17:04.748Z,99.90
2017-11-12T21:23:54.493Z,99.90
2017-11-12T21:27:21.255Z,99.90
2017-11-12T21:30:31.030Z,99.90
2017-11-12T21:33:44.567Z,99.90
2017-11-12T21:36:55.253Z,99.90
2017-11-12T21:40:05.670Z,99.90
2017-11-12T21:43:15.368Z,99.90
2017-11-12T21:46:25.182Z,99.90
2017-11-12T21:49:35.099Z,99.90
2017-11-12T21:52:44.703Z,99.90
2017-11-12T21:55:55.260Z,99.90
2017-11-12T21:59:05.842Z,99.90
2017-11-12T22:02:16.034Z,99.90
2017-11-12T22:05:25.939Z,99.90
2017-11-12T22:08:35.783Z,99.90
2017-11-12T22:11:45.535Z,99.90
2017-11-12T22:14:55.318Z,99.90
2017-11-12T22:18:04.559Z,99.90
2017-11-12T22:21:14.458Z,99.90
2017-11-12T22:24:24.556Z,99.90
2017-11-12T22:27:34.577Z,99.90
2017-11-12T22:30:44.765Z,99.90
2017-11-12T22:33:55.439Z,99.90
2017-11-12T22:37:05.427Z,99.90
2017-11-12T22:40:16.177Z,99.90
2017-11-12T22:43:26.111Z,99.90
2017-11-12T22:46:36.734Z,99.90
2017-11-12T22:49:46.859Z,99.90
2017-11-12T22:52:57.715Z,99.90
2017-11-12T22:56:08.033Z,99.90
2017-11-12T22:59:18.333Z,99.90
2017-11-12T23:02:28.434Z,99.90
2017-11-12T23:05:38.564Z,99.90
2017-11-12T23:08:48.646Z,99.90
2017-11-12T23:11:58.815Z,99.90
2017-11-12T23:15:08.974Z,99.90
2017-11-12T23:18:20.274Z,99.90
2017-11-12T23:21:31.246Z,99.90
2017-11-12T23:24:41.785Z,99.90
2017-11-12T23:27:52.026Z,99.90
2017-11-12T23:31:02.878Z,99.90
2017-11-12T23:34:13.559Z,99.90
2017-11-12T23:37:23.438Z,99.90
2017-11-12T23:40:34.033Z,99.90
2017-11-12T23:43:43.786Z,99.90
2017-11-12T23:46:53.853Z,99.90
2017-11-12T23:50:03.957Z,99.90
2017-11-12T23:53:13.519Z,99.90
2017-11-12T23:56:23.518Z,99.90
2017-11-12T23:59:33.392Z,99.90
